Time;durP1;ratioP1;P1;durP2;ratioP2;P2;SDS_P1;SDS_P2;PMS_P1;PMS_P2;Temp;Humidity;BMP_temperature;BMP_pressure;BME280_temperature;BME280_humidity;BME280_pressure;Samples;Min_cycle;Max_cycle;Signal;HPM_P1;HPM_P2
2021/06/08 00:00:55;;;;;;;;;;;;;;;20.56;100.00;99699.16;5060278;28;19923;-62
2021/06/08 00:03:20;;;;;;;;;;;;;;;20.56;100.00;99696.53;5036439;28;19912;-62
2021/06/08 00:05:45;;;;;;;;;;;;;;;20.44;100.00;99698.13;5044305;28;20418;-62
2021/06/08 00:08:11;;;;;;;;;;;;;;;20.54;100.00;99695.75;5057954;28;19913;-62
2021/06/08 00:10:36;;;;;;;;;;;;;;;20.57;100.00;99695.63;5038072;28;19912;-62
2021/06/08 00:13:01;;;;;;;;;;;;;;;20.57;100.00;99700.00;5059387;28;19924;-62
2021/06/08 00:15:27;;;;;;;;;;;;;;;20.54;100.00;99702.78;5057628;28;19927;-62
2021/06/08 00:17:52;;;;;;;;;;;;;;;20.32;100.00;99698.00;5059010;28;19917;-62
2021/06/08 00:20:17;;;;;;;;;;;;;;;20.25;100.00;99701.03;5054899;28;20382;-61
2021/06/08 00:22:43;;;;;;;;;;;;;;;19.88;100.00;99707.59;5057078;28;20011;-62
2021/06/08 00:25:08;;;;;;;;;;;;;;;20.20;100.00;99707.44;5064459;28;19923;-62
2021/06/08 00:27:34;;;;;;;;;;;;;;;20.33;100.00;99702.31;5056539;28;19913;-62
2021/06/08 00:29:59;;;;;;;;;;;;;;;20.41;100.00;99700.94;5035027;28;20278;-62
2021/06/08 00:32:25;;;;;;;;;;;;;;;20.41;100.00;99707.91;5060814;28;19916;-62
2021/06/08 00:34:50;;;;;;;;;;;;;;;20.19;100.00;99711.00;5038081;28;19912;-62
2021/06/08 00:37:15;;;;;;;;;;;;;;;20.32;100.00;99701.50;5056558;28;19979;-62
2021/06/08 00:39:41;;;;;;;;;;;;;;;20.02;100.00;99705.00;5060598;28;20441;-61
2021/06/08 00:42:06;;;;;;;;;;;;;;;20.11;100.00;99697.53;5056291;28;19917;-62
2021/06/08 00:44:32;;;;;;;;;;;;;;;19.80;100.00;99707.22;5058524;28;20452;-62
2021/06/08 00:46:57;;;;;;;;;;;;;;;20.03;100.00;99696.25;5052016;28;19914;-62
2021/06/08 00:49:22;;;;;;;;;;;;;;;20.29;100.00;99696.44;5058665;28;19921;-62
2021/06/08 00:51:48;;;;;;;;;;;;;;;19.76;100.00;99698.72;5041643;28;19966;-61
2021/06/08 00:54:13;;;;;;;;;;;;;;;19.93;100.00;99686.41;5056831;28;19923;-61
2021/06/08 00:56:40;;;;;;;;;;;;;;;19.74;100.00;99694.50;5041001;28;19925;-62
2021/06/08 00:59:05;;;;;;;;;;;;;;;19.87;100.00;99697.25;5053390;28;19917;-62
2021/06/08 01:01:31;;;;;;;;;;;;;;;20.12;100.00;99688.78;5057382;28;19986;-62
2021/06/08 01:03:57;;;;;;;;;;;;;;;20.09;100.00;99686.34;5038427;28;20381;-62
2021/06/08 01:06:22;;;;;;;;;;;;;;;20.10;100.00;99685.41;5059553;28;19920;-62
2021/06/08 01:08:47;;;;;;;;;;;;;;;20.13;100.00;99680.81;5054394;28;19920;-62
2021/06/08 01:11:14;;;;;;;;;;;;;;;20.15;100.00;99684.19;5059702;28;19912;-62
2021/06/08 01:13:42;;;;;;;;;;;;;;;20.20;100.00;99676.06;5057220;28;19916;-61
2021/06/08 01:16:08;;;;;;;;;;;;;;;20.22;100.00;99676.81;5059631;28;19924;-62
2021/06/08 01:18:33;;;;;;;;;;;;;;;20.24;100.00;99672.34;5059781;28;19921;-62
2021/06/08 01:21:02;;;;;;;;;;;;;;;20.16;100.00;99674.56;5034686;28;19912;-62
2021/06/08 01:23:28;;;;;;;;;;;;;;;20.12;100.00;99673.09;5053170;28;20545;-62
2021/06/08 01:25:54;;;;;;;;;;;;;;;20.12;100.00;99675.72;5053068;28;19923;-62
2021/06/08 01:28:20;;;;;;;;;;;;;;;20.13;100.00;99680.00;5034719;28;20317;-62
2021/06/08 01:30:45;;;;;;;;;;;;;;;20.19;100.00;99679.63;5035600;28;19924;-62
2021/06/08 01:33:10;;;;;;;;;;;;;;;20.16;100.00;99678.03;5052272;28;19912;-62
2021/06/08 01:35:36;;;;;;;;;;;;;;;20.03;100.00;99680.56;5051179;28;19974;-62
2021/06/08 01:38:01;;;;;;;;;;;;;;;20.12;100.00;99680.94;5038673;28;19921;-62
2021/06/08 01:40:27;;;;;;;;;;;;;;;20.19;100.00;99675.22;5036958;28;19934;-61
2021/06/08 01:42:52;;;;;;;;;;;;;;;20.25;100.00;99674.00;5051789;28;19916;-62
2021/06/08 01:45:18;;;;;;;;;;;;;;;20.22;100.00;99674.19;5058223;28;19920;-62
2021/06/08 01:47:43;;;;;;;;;;;;;;;20.20;100.00;99671.66;5034892;28;20003;-62
2021/06/08 01:50:09;;;;;;;;;;;;;;;20.15;100.00;99672.91;5053835;28;19912;-61
2021/06/08 01:52:47;;;;;;;;;;;;;;;20.12;100.00;99679.16;5054085;28;19983;-62
2021/06/08 01:55:12;;;;;;;;;;;;;;;20.03;100.00;99675.31;5057462;28;19912;-62
2021/06/08 01:57:40;;;;;;;;;;;;;;;20.12;100.00;99675.72;5057626;28;19928;-62
2021/06/08 02:00:05;;;;;;;;;;;;;;;20.16;100.00;99675.44;5052435;28;20337;-62
2021/06/08 02:02:50;;;;;;;;;;;;;;;20.25;100.00;99674.88;5054597;28;19928;-62
2021/06/08 02:05:27;;;;;;;;;;;;;;;20.13;100.00;99678.22;5051870;28;19920;-61
2021/06/08 02:08:11;;;;;;;;;;;;;;;20.03;100.00;99675.31;5060624;28;20349;-62
2021/06/08 02:10:39;;;;;;;;;;;;;;;20.03;100.00;99675.31;5057554;28;20379;-62
2021/06/08 02:13:07;;;;;;;;;;;;;;;19.98;100.00;99672.16;5054486;28;20294;-62
2021/06/08 02:15:33;;;;;;;;;;;;;;;19.94;100.00;99683.72;5038769;28;19920;-63
2021/06/08 02:17:59;;;;;;;;;;;;;;;20.02;100.00;99681.47;5022035;28;19917;-62
2021/06/08 02:20:26;;;;;;;;;;;;;;;19.96;100.00;99679.25;5054084;28;19967;-62
2021/06/08 02:22:55;;;;;;;;;;;;;;;19.90;100.00;99681.38;5038012;28;19956;-62
2021/06/08 02:25:21;;;;;;;;;;;;;;;19.86;100.00;99683.31;5034165;28;19912;-62
2021/06/08 02:27:47;;;;;;;;;;;;;;;19.62;100.00;99681.19;5039333;28;19939;-61
2021/06/08 02:30:13;;;;;;;;;;;;;;;19.65;100.00;99685.41;5040488;28;19912;-62
2021/06/08 02:32:39;;;;;;;;;;;;;;;19.82;100.00;99681.84;5034785;28;19917;-62
2021/06/08 02:35:05;;;;;;;;;;;;;;;19.77;100.00;99678.66;5054821;28;20082;-62
2021/06/08 02:37:30;;;;;;;;;;;;;;;19.82;100.00;99684.47;5039354;28;19924;-62
2021/06/08 02:39:56;;;;;;;;;;;;;;;19.29;100.00;99683.16;5034366;28;19960;-62
2021/06/08 02:42:21;;;;;;;;;;;;;;;19.26;100.00;99689.38;5035156;28;19953;-62
2021/06/08 02:44:47;;;;;;;;;;;;;;;19.33;100.00;99688.09;5036900;28;19913;-61
2021/06/08 02:47:13;;;;;;;;;;;;;;;19.52;100.00;99689.66;5055480;28;19913;-62
2021/06/08 02:49:38;;;;;;;;;;;;;;;19.61;100.00;99683.91;5033388;28;19937;-62
2021/06/08 02:52:03;;;;;;;;;;;;;;;19.60;100.00;99692.69;5054909;28;19920;-62
2021/06/08 02:54:29;;;;;;;;;;;;;;;19.58;100.00;99691.94;5034948;28;20003;-62
2021/06/08 02:56:55;;;;;;;;;;;;;;;19.41;100.00;99690.31;5040069;28;19924;-62
2021/06/08 02:59:20;;;;;;;;;;;;;;;19.32;100.00;99699.50;5058377;28;19923;-62
2021/06/08 03:01:48;;;;;;;;;;;;;;;19.25;100.00;99697.31;5016164;28;19925;-62
2021/06/08 03:04:13;;;;;;;;;;;;;;;19.38;100.00;99703.50;5020651;28;19917;-61
2021/06/08 03:06:44;;;;;;;;;;;;;;;19.26;100.00;99699.00;5037162;28;19921;-62
2021/06/08 03:09:13;;;;;;;;;;;;;;;19.41;100.00;99698.13;5038319;28;19916;-62
2021/06/08 03:11:43;;;;;;;;;;;;;;;19.48;100.00;99704.69;5034387;28;19939;-62
2021/06/08 03:14:13;;;;;;;;;;;;;;;19.42;100.00;99699.81;5034006;28;20016;-62
2021/06/08 03:16:39;;;;;;;;;;;;;;;19.54;100.00;99699.09;5017141;28;20071;-62
2021/06/08 03:19:05;;;;;;;;;;;;;;;19.54;100.00;99699.09;5038038;28;19917;-63
2021/06/08 03:21:32;;;;;;;;;;;;;;;19.38;100.00;99699.13;5054779;28;19924;-62
2021/06/08 03:23:59;;;;;;;;;;;;;;;19.39;100.00;99700.81;5032185;28;19920;-62
2021/06/08 03:26:24;;;;;;;;;;;;;;;19.14;100.00;99700.53;5037785;28;20015;-62
2021/06/08 03:28:53;;;;;;;;;;;;;;;19.35;100.00;99698.47;5041367;28;20352;-62
2021/06/08 03:31:18;;;;;;;;;;;;;;;19.19;100.00;99699.34;5053657;28;19913;-63
2021/06/08 03:33:44;;;;;;;;;;;;;;;19.06;100.00;99687.91;5023390;28;19916;-62
2021/06/08 03:36:10;;;;;;;;;;;;;;;19.33;100.00;99706.38;5040664;28;19940;-62
2021/06/08 03:38:35;;;;;;;;;;;;;;;18.26;100.00;99705.22;5055442;28;20356;-62
2021/06/08 03:41:00;;;;;;;;;;;;;;;18.50;100.00;99700.50;5037941;28;19970;-62
2021/06/08 03:43:26;;;;;;;;;;;;;;;19.05;100.00;99707.13;5038150;28;19921;-62
2021/06/08 03:45:51;;;;;;;;;;;;;;;19.15;100.00;99699.59;5040419;28;19971;-62
2021/06/08 03:48:16;;;;;;;;;;;;;;;19.01;100.00;99700.38;5043182;28;19913;-62
2021/06/08 03:50:45;;;;;;;;;;;;;;;19.09;100.00;99695.59;5056179;28;20377;-62
2021/06/08 03:53:10;;;;;;;;;;;;;;;19.23;100.00;99695.63;5062537;28;19916;-62
2021/06/08 03:55:36;;;;;;;;;;;;;;;18.55;100.00;99692.44;5057561;28;19969;-62
2021/06/08 03:58:09;;;;;;;;;;;;;;;18.74;100.00;99694.88;5039357;28;19917;-62
2021/06/08 04:00:34;;;;;;;;;;;;;;;19.08;100.00;99690.44;5033803;28;19917;-62
2021/06/08 04:02:59;;;;;;;;;;;;;;;19.27;100.00;99695.44;5034723;28;19928;-62
2021/06/08 04:05:25;;;;;;;;;;;;;;;19.19;100.00;99699.34;5038982;28;20186;-62
2021/06/08 04:07:50;;;;;;;;;;;;;;;18.77;100.00;99692.97;5041958;28;20333;-62
2021/06/08 04:10:17;;;;;;;;;;;;;;;19.04;100.00;99691.53;5039537;28;19928;-62
2021/06/08 04:12:42;;;;;;;;;;;;;;;18.05;100.00;99693.34;5037135;28;19967;-62
2021/06/08 04:15:08;;;;;;;;;;;;;;;18.17;100.00;99690.06;5037327;28;19917;-62
2021/06/08 04:17:34;;;;;;;;;;;;;;;19.03;100.00;99693.31;5036547;28;19944;-62
2021/06/08 04:19:59;;;;;;;;;;;;;;;19.13;100.00;99688.41;5036873;28;19916;-62
2021/06/08 04:22:26;;;;;;;;;;;;;;;19.23;100.00;99687.81;5035614;28;19931;-62
2021/06/08 04:24:51;;;;;;;;;;;;;;;19.45;100.00;99683.94;5040507;28;20007;-62
2021/06/08 04:27:20;;;;;;;;;;;;;;;19.51;100.00;99683.59;5034986;28;20029;-62
2021/06/08 04:29:46;;;;;;;;;;;;;;;19.59;100.00;99680.53;5037018;28;20219;-62
2021/06/08 04:32:11;;;;;;;;;;;;;;;19.58;100.00;99684.91;5038295;28;19939;-63
2021/06/08 04:34:36;;;;;;;;;;;;;;;19.39;100.00;99685.16;5032916;28;20366;-62
2021/06/08 04:37:02;;;;;;;;;;;;;;;18.12;100.00;99687.72;5039355;28;19992;-62
2021/06/08 04:39:27;;;;;;;;;;;;;;;18.66;100.00;99689.25;5036885;28;20004;-62
2021/06/08 04:41:53;;;;;;;;;;;;;;;18.07;100.00;99686.28;5033655;28;20282;-63
2021/06/08 04:44:21;;;;;;;;;;;;;;;17.11;100.00;99693.59;5035096;28;19997;-63
2021/06/08 04:46:46;;;;;;;;;;;;;;;17.08;100.00;99695.47;5035390;28;20013;-62
2021/06/08 04:49:15;;;;;;;;;;;;;;;17.20;100.00;99699.28;5036494;28;20006;-62
2021/06/08 04:51:41;;;;;;;;;;;;;;;17.12;100.00;99700.47;5036925;28;19964;-64
2021/06/08 04:54:06;;;;;;;;;;;;;;;16.67;100.00;99695.63;5034294;28;19955;-64
2021/06/08 04:56:31;;;;;;;;;;;;;;;16.88;100.00;99697.28;5039241;28;19932;-65
2021/06/08 04:58:57;;;;;;;;;;;;;;;16.76;100.00;99705.59;5033249;28;19948;-65
2021/06/08 05:01:33;;;;;;;;;;;;;;;17.04;100.00;99699.16;5037336;28;19924;-65
2021/06/08 05:04:19;;;;;;;;;;;;;;;16.79;100.00;99705.50;5034510;28;19921;-65
2021/06/08 05:06:47;;;;;;;;;;;;;;;17.30;100.00;99696.13;5029207;28;19913;-65
2021/06/08 05:09:16;;;;;;;;;;;;;;;18.02;100.00;99696.06;5032625;28;20457;-65
2021/06/08 05:11:42;;;;;;;;;;;;;;;18.20;100.00;99697.75;5032727;28;19971;-65
2021/06/08 05:14:10;;;;;;;;;;;;;;;18.74;100.00;99702.69;5032387;28;20015;-65
2021/06/08 05:16:39;;;;;;;;;;;;;;;19.25;100.00;99697.31;5028520;28;19925;-65
2021/06/08 05:19:06;;;;;;;;;;;;;;;19.27;100.00;99698.91;5029602;28;19960;-65
2021/06/08 05:21:32;;;;;;;;;;;;;;;18.79;100.00;99706.78;5028181;28;20035;-65
2021/06/08 05:23:57;;;;;;;;;;;;;;;18.58;100.00;99702.69;5037613;28;20004;-65
2021/06/08 05:26:23;;;;;;;;;;;;;;;18.35;100.00;99707.34;5030195;28;19913;-65
2021/06/08 05:28:48;;;;;;;;;;;;;;;17.93;100.00;99711.28;5031574;28;19917;-65
2021/06/08 05:31:16;;;;;;;;;;;;;;;18.00;100.00;99713.59;5031487;28;19921;-65
2021/06/08 05:33:42;;;;;;;;;;;;;;;17.88;100.00;99723.72;5028689;28;19913;-65
2021/06/08 05:36:07;;;;;;;;;;;;;;;19.21;100.00;99715.75;5030682;28;19917;-65
2021/06/08 05:38:34;;;;;;;;;;;;;;;19.39;100.00;99718.28;5029278;28;20350;-65
2021/06/08 05:41:05;;;;;;;;;;;;;;;18.93;100.00;99718.22;5033756;28;19916;-65
2021/06/08 05:43:31;;;;;;;;;;;;;;;19.18;100.00;99713.34;5017149;28;19999;-65
2021/06/08 05:45:56;;;;;;;;;;;;;;;19.18;100.00;99718.56;5035497;28;20528;-65
2021/06/08 05:48:22;;;;;;;;;;;;;;;18.57;100.00;99721.88;5035306;28;19913;-65
2021/06/08 05:50:47;;;;;;;;;;;;;;;18.18;100.00;99725.66;5035766;28;20057;-65
2021/06/08 05:53:15;;;;;;;;;;;;;;;18.07;100.00;99722.78;5033716;28;19959;-65
2021/06/08 05:55:40;;;;;;;;;;;;;;;18.53;100.00;99725.56;5034510;28;19979;-65
2021/06/08 05:58:06;;;;;;;;;;;;;;;18.65;100.00;99724.91;5037348;28;19920;-65
2021/06/08 06:00:31;;;;;;;;;;;;;;;17.73;100.00;99720.06;5051385;28;20011;-65
2021/06/08 06:03:12;;;;;;;;;;;;;;;17.33;100.00;99731.59;4993140;28;20239;-65
2021/06/08 06:05:38;;;;;;;;;;;;;;;17.40;100.00;99738.19;5031748;28;19921;-65
2021/06/08 06:08:04;;;;;;;;;;;;;;;17.61;100.00;99725.91;5056472;28;20002;-65
2021/06/08 06:10:29;;;;;;;;;;;;;;;17.37;100.00;99727.94;5058113;28;19921;-65
2021/06/08 06:12:54;;;;;;;;;;;;;;;18.30;100.00;99721.56;5054411;28;19926;-65
2021/06/08 06:15:21;;;;;;;;;;;;;;;17.84;100.00;99732.59;5036447;28;19942;-65
2021/06/08 06:17:46;;;;;;;;;;;;;;;17.47;100.00;99733.53;5034176;28;20381;-65
2021/06/08 06:20:13;;;;;;;;;;;;;;;17.66;100.00;99729.09;5053041;28;19924;-65
2021/06/08 06:22:38;;;;;;;;;;;;;;;17.60;100.00;99728.56;5061128;28;20366;-65
2021/06/08 06:25:05;;;;;;;;;;;;;;;17.78;100.00;99728.50;5053036;28;19956;-65
2021/06/08 06:27:41;;;;;;;;;;;;;;;18.03;100.00;99732.50;5053170;28;19917;-65
2021/06/08 06:30:08;;;;;;;;;;;;;;;17.73;100.00;99727.03;5057939;28;20607;-65
2021/06/08 06:32:33;;;;;;;;;;;;;;;17.73;100.00;99727.03;5051773;28;19939;-65
2021/06/08 06:34:59;;;;;;;;;;;;;;;19.35;100.00;99725.44;5052610;28;19920;-65
2021/06/08 06:37:24;;;;;;;;;;;;;;;18.36;100.00;99735.13;5052480;28;19935;-65
2021/06/08 06:39:50;;;;;;;;;;;;;;;18.52;100.00;99729.09;5036660;28;20301;-65
2021/06/08 06:42:15;;;;;;;;;;;;;;;18.58;100.00;99728.78;5036011;28;19960;-65
2021/06/08 06:44:41;;;;;;;;;;;;;;;19.00;100.00;99732.63;5035411;28;20397;-65
2021/06/08 06:47:07;;;;;;;;;;;;;;;19.46;100.00;99732.66;5028704;28;19913;-65
2021/06/08 06:49:32;;;;;;;;;;;;;;;18.92;100.00;99729.59;5047487;28;19998;-65
2021/06/08 06:51:57;;;;;;;;;;;;;;;20.05;100.00;99736.22;5045472;28;19952;-65
2021/06/08 06:54:23;;;;;;;;;;;;;;;20.39;100.00;99728.97;5034577;28;19975;-65
2021/06/08 06:56:48;;;;;;;;;;;;;;;18.85;100.00;99733.47;5034043;28;20011;-65
2021/06/08 06:59:14;;;;;;;;;;;;;;;19.65;100.00;99741.13;5056942;28;19920;-65
2021/06/08 07:01:41;;;;;;;;;;;;;;;19.45;100.00;99741.41;5050591;28;19982;-65
2021/06/08 07:04:06;;;;;;;;;;;;;;;19.51;100.00;99741.06;5034248;28;19912;-66
2021/06/08 07:06:32;;;;;;;;;;;;;;;19.56;100.00;99744.25;5033652;28;19923;-65
2021/06/08 07:08:57;;;;;;;;;;;;;;;18.79;100.00;99743.31;5055702;28;19928;-65
2021/06/08 07:11:23;;;;;;;;;;;;;;;18.76;100.00;99738.22;5033847;28;19923;-65
2021/06/08 07:13:48;;;;;;;;;;;;;;;19.15;100.00;99739.59;5044592;28;19992;-65
2021/06/08 07:16:18;;;;;;;;;;;;;;;18.44;100.00;99744.31;5034836;28;19963;-65
2021/06/08 07:18:45;;;;;;;;;;;;;;;18.97;100.00;99745.84;5035386;28;19920;-65
2021/06/08 07:21:11;;;;;;;;;;;;;;;20.09;100.00;99747.31;5056322;28;20361;-65
2021/06/08 07:23:36;;;;;;;;;;;;;;;18.91;100.00;99741.81;5060076;28;19963;-65
2021/06/08 07:26:02;;;;;;;;;;;;;;;20.04;100.00;99738.91;5036446;28;19923;-65
2021/06/08 07:28:28;;;;;;;;;;;;;;;18.34;100.00;99742.19;5056006;28;19940;-65
2021/06/08 07:30:53;;;;;;;;;;;;;;;19.07;100.00;99733.97;5032979;28;20356;-65
2021/06/08 07:33:34;;;;;;;;;;;;;;;18.62;100.00;99742.50;5054984;28;19923;-65
2021/06/08 07:36:08;;;;;;;;;;;;;;;18.98;100.00;99748.38;5056954;28;19917;-65
2021/06/08 07:38:52;;;;;;;;;;;;;;;19.83;100.00;99735.78;5032630;28;19916;-65
2021/06/08 07:41:20;;;;;;;;;;;;;;;18.56;100.00;99738.44;5045510;28;20472;-65
2021/06/08 07:43:54;;;;;;;;;;;;;;;18.04;100.00;99742.03;5033646;28;19917;-65
2021/06/08 07:46:20;;;;;;;;;;;;;;;18.26;100.00;99751.34;5036080;28;19927;-65
2021/06/08 07:48:45;;;;;;;;;;;;;;;18.57;100.00;99748.81;5054934;28;19920;-65
2021/06/08 07:51:12;;;;;;;;;;;;;;;18.54;100.00;99758.56;5032280;28;19917;-65
2021/06/08 07:53:37;;;;;;;;;;;;;;;18.41;100.00;99752.31;5054174;28;19912;-65
2021/06/08 07:56:03;;;;;;;;;;;;;;;18.81;100.00;99757.09;5033366;28;19932;-65
2021/06/08 07:58:28;;;;;;;;;;;;;;;18.04;100.00;99755.06;5019933;28;19928;-65
2021/06/08 08:00:56;;;;;;;;;;;;;;;18.54;100.00;99758.56;5052833;28;20404;-64
2021/06/08 08:03:28;;;;;;;;;;;;;;;19.65;100.00;99754.19;5056943;28;19999;-64
2021/06/08 08:06:12;;;;;;;;;;;;;;;19.50;100.00;99754.22;5013086;28;19928;-65
2021/06/08 08:08:38;;;;;;;;;;;;;;;18.92;100.00;99763.53;5048408;28;19939;-64
2021/06/08 08:11:11;;;;;;;;;;;;;;;18.06;100.00;99761.00;5058701;28;19932;-65
2021/06/08 08:13:36;;;;;;;;;;;;;;;18.33;100.00;99763.97;5057309;28;19974;-65
2021/06/08 08:16:04;;;;;;;;;;;;;;;18.91;100.00;99762.69;5028374;28;19952;-64
2021/06/08 08:18:30;;;;;;;;;;;;;;;18.70;100.00;99759.44;5054899;28;19939;-64
2021/06/08 08:20:56;;;;;;;;;;;;;;;18.60;100.00;99758.22;5050836;28;20310;-64
2021/06/08 08:23:28;;;;;;;;;;;;;;;18.60;100.00;99763.44;5053556;28;19916;-64
2021/06/08 08:25:54;;;;;;;;;;;;;;;18.95;100.00;99768.56;5048342;28;19913;-64
2021/06/08 08:28:20;;;;;;;;;;;;;;;18.99;100.00;99767.47;5048376;28;20358;-65
2021/06/08 08:30:45;;;;;;;;;;;;;;;19.79;100.00;99773.50;5054644;28;20015;-65
2021/06/08 08:33:11;;;;;;;;;;;;;;;19.89;100.00;99772.03;5039416;28;20297;-65
2021/06/08 08:35:37;;;;;;;;;;;;;;;19.54;100.00;99774.84;5041032;28;20012;-65
2021/06/08 08:38:02;;;;;;;;;;;;;;;19.88;100.00;99774.72;5053268;28;20011;-65
2021/06/08 08:40:28;;;;;;;;;;;;;;;19.61;100.00;99778.81;5057308;28;20417;-65
2021/06/08 08:42:54;;;;;;;;;;;;;;;18.63;100.00;99778.09;5055692;28;19930;-64
2021/06/08 08:45:20;;;;;;;;;;;;;;;19.72;100.00;99769.56;5057885;28;20011;-65
2021/06/08 08:47:45;;;;;;;;;;;;;;;20.00;100.00;99772.25;5040786;28;19917;-65
2021/06/08 08:50:14;;;;;;;;;;;;;;;19.98;100.00;99775.88;5056751;28;19913;-64
2021/06/08 08:52:41;;;;;;;;;;;;;;;20.88;100.00;99770.44;5052945;28;20025;-65
2021/06/08 08:55:07;;;;;;;;;;;;;;;21.38;100.00;99775.19;5030519;28;19958;-64
2021/06/08 08:57:32;;;;;;;;;;;;;;;20.71;100.00;99773.28;5047902;28;19921;-65
2021/06/08 09:00:02;;;;;;;;;;;;;;;20.79;100.00;99778.03;5043589;28;19927;-65
2021/06/08 09:02:28;;;;;;;;;;;;;;;19.29;100.00;99785.00;5036503;28;20007;-65
2021/06/08 09:04:53;;;;;;;;;;;;;;;19.34;100.00;99776.00;5030742;28;20066;-65
2021/06/08 09:07:19;;;;;;;;;;;;;;;19.89;100.00;99777.28;5035536;28;20373;-64
2021/06/08 09:09:46;;;;;;;;;;;;;;;19.87;100.00;99779.13;5057853;28;20020;-64
2021/06/08 09:12:12;;;;;;;;;;;;;;;19.89;100.00;99776.41;5034064;28;19923;-65
2021/06/08 09:14:38;;;;;;;;;;;;;;;20.20;100.00;99775.44;5051484;28;19921;-65
2021/06/08 09:17:04;;;;;;;;;;;;;;;19.54;100.00;99782.69;5049695;28;19921;-65
2021/06/08 09:19:30;;;;;;;;;;;;;;;19.53;100.00;99774.97;5016877;28;20439;-65
2021/06/08 09:21:56;;;;;;;;;;;;;;;19.14;100.00;99778.88;5048264;28;19920;-65
2021/06/08 09:24:22;;;;;;;;;;;;;;;19.24;100.00;99774.81;5053473;28;20413;-64
2021/06/08 09:26:55;;;;;;;;;;;;;;;19.41;100.00;99769.50;5028672;28;19924;-64
2021/06/08 09:29:33;;;;;;;;;;;;;;;19.65;100.00;99769.03;5039053;28;19947;-64
2021/06/08 09:32:10;;;;;;;;;;;;;;;20.59;100.00;99760.94;5047959;28;19981;-65
2021/06/08 09:34:36;;;;;;;;;;;;;;;20.96;100.00;99761.25;5053237;28;19917;-65
2021/06/08 09:37:05;;;;;;;;;;;;;;;19.68;100.00;99758.38;5057925;28;19981;-64
2021/06/08 09:39:30;;;;;;;;;;;;;;;20.01;100.00;99763.47;5052257;28;19939;-64
2021/06/08 09:41:55;;;;;;;;;;;;;;;21.66;100.00;99759.38;5060215;28;19928;-64
2021/06/08 09:44:21;;;;;;;;;;;;;;;22.06;100.00;99751.47;5054542;28;19979;-64
2021/06/08 09:46:50;;;;;;;;;;;;;;;21.99;97.01;99757.25;5059459;28;19916;-65
2021/06/08 09:49:16;;;;;;;;;;;;;;;22.97;97.29;99753.09;5050109;28;19916;-64
2021/06/08 09:52:00;;;;;;;;;;;;;;;20.39;100.00;99760.34;5054563;28;19928;-65
2021/06/08 09:54:35;;;;;;;;;;;;;;;21.08;100.00;99750.84;5028194;28;19999;-64
2021/06/08 09:57:16;;;;;;;;;;;;;;;21.52;100.00;99754.19;5032978;28;20348;-65
2021/06/08 09:59:48;;;;;;;;;;;;;;;22.85;96.60;99754.78;5054085;28;19916;-64
2021/06/08 10:02:26;;;;;;;;;;;;;;;23.48;96.80;99752.06;5051897;28;20023;-64
2021/06/08 10:04:51;;;;;;;;;;;;;;;22.84;100.00;99747.88;5055296;28;19958;-64
2021/06/08 10:07:35;;;;;;;;;;;;;;;22.32;97.50;99746.25;5032871;28;19948;-64
2021/06/08 10:10:04;;;;;;;;;;;;;;;22.11;100.00;99744.13;5030404;28;19928;-65
2021/06/08 10:12:29;;;;;;;;;;;;;;;21.42;100.00;99747.91;5049577;28;19919;-64
2021/06/08 10:15:03;;;;;;;;;;;;;;;22.90;100.00;99744.81;5048742;28;19916;-64
2021/06/08 10:17:29;;;;;;;;;;;;;;;23.57;98.67;99751.41;5028956;28;19963;-65
2021/06/08 10:19:54;;;;;;;;;;;;;;;22.50;100.00;99744.16;5049542;28;19920;-65
2021/06/08 10:22:29;;;;;;;;;;;;;;;20.46;100.00;99752.97;5055120;28;20378;-64
2021/06/08 10:24:55;;;;;;;;;;;;;;;23.31;100.00;99741.00;5052990;28;19912;-64
2021/06/08 10:27:20;;;;;;;;;;;;;;;23.21;97.53;99734.75;5031139;28;19917;-65
2021/06/08 10:29:45;;;;;;;;;;;;;;;22.58;94.44;99740.97;5036174;28;19925;-65
2021/06/08 10:32:11;;;;;;;;;;;;;;;24.05;95.27;99740.78;5030323;28;19913;-65
2021/06/08 10:34:37;;;;;;;;;;;;;;;24.69;86.85;99731.53;5051530;28;19920;-65
2021/06/08 10:37:03;;;;;;;;;;;;;;;23.02;90.79;99740.50;5053224;28;19987;-65
2021/06/08 10:39:29;;;;;;;;;;;;;;;24.60;84.53;99740.97;5050546;28;20050;-65
2021/06/08 10:41:57;;;;;;;;;;;;;;;24.61;81.27;99732.97;5060643;28;19916;-64
2021/06/08 10:44:23;;;;;;;;;;;;;;;23.55;91.75;99734.88;5055836;28;19927;-64
2021/06/08 10:46:50;;;;;;;;;;;;;;;25.13;88.56;99721.84;5053487;28;19912;-65
2021/06/08 10:49:16;;;;;;;;;;;;;;;25.71;80.93;99727.63;5035836;28;19931;-65
2021/06/08 10:52:02;;;;;;;;;;;;;;;22.50;91.02;99729.22;5054974;28;19916;-65
2021/06/08 10:54:27;;;;;;;;;;;;;;;22.43;100.00;99722.75;5033207;28;19916;-65
2021/06/08 10:56:57;;;;;;;;;;;;;;;23.91;99.71;99717.34;5057066;28;20011;-64
2021/06/08 10:59:33;;;;;;;;;;;;;;;23.69;92.31;99715.44;5033392;28;19927;-65
2021/06/08 11:01:58;;;;;;;;;;;;;;;25.62;83.35;99717.84;5060635;28;19927;-64
2021/06/08 11:04:24;;;;;;;;;;;;;;;25.25;80.16;99715.63;5035607;28;19916;-65
2021/06/08 11:06:55;;;;;;;;;;;;;;;24.52;82.65;99717.88;5038011;28;19927;-65
2021/06/08 11:09:24;;;;;;;;;;;;;;;25.83;83.20;99721.31;5031329;28;19923;-65
2021/06/08 11:11:57;;;;;;;;;;;;;;;24.54;90.22;99715.97;5052482;28;19917;-64
2021/06/08 11:14:32;;;;;;;;;;;;;;;25.53;97.31;99713.34;5031632;28;19912;-64
2021/06/08 11:17:02;;;;;;;;;;;;;;;26.63;77.34;99709.22;5034349;28;19916;-64
2021/06/08 11:19:46;;;;;;;;;;;;;;;22.13;91.18;99723.03;5040869;28;19920;-64
2021/06/08 11:22:12;;;;;;;;;;;;;;;23.83;100.00;99719.69;5030863;28;19991;-65
2021/06/08 11:24:39;;;;;;;;;;;;;;;25.30;90.03;99712.59;5052622;28;19994;-64
2021/06/08 11:27:04;;;;;;;;;;;;;;;23.49;87.12;99732.72;5055133;28;20439;-64
2021/06/08 11:29:40;;;;;;;;;;;;;;;24.84;90.30;99717.13;5058349;28;19944;-65
2021/06/08 11:32:06;;;;;;;;;;;;;;;24.03;83.37;99726.91;5037567;28;19929;-65
2021/06/08 11:34:31;;;;;;;;;;;;;;;24.74;88.32;99718.81;5054489;28;19946;-64
2021/06/08 11:36:56;;;;;;;;;;;;;;;23.53;87.98;99721.00;5056939;28;20007;-64
2021/06/08 11:39:23;;;;;;;;;;;;;;;23.47;91.73;99730.22;5058340;28;19924;-64
2021/06/08 11:42:05;;;;;;;;;;;;;;;24.40;94.68;99718.81;5036253;28;19938;-64
2021/06/08 11:44:31;;;;;;;;;;;;;;;24.20;100.00;99718.56;5051028;28;19924;-65
2021/06/08 11:47:00;;;;;;;;;;;;;;;24.59;94.10;99713.81;5051631;28;19932;-64
2021/06/08 11:49:28;;;;;;;;;;;;;;;22.75;98.38;99720.47;5011752;28;20011;-64
2021/06/08 11:52:05;;;;;;;;;;;;;;;24.18;95.22;99711.75;5054731;28;20019;-64
2021/06/08 11:54:38;;;;;;;;;;;;;;;25.34;85.68;99714.88;5051508;28;19936;-65
2021/06/08 11:57:14;;;;;;;;;;;;;;;26.28;76.22;99709.66;5037499;28;20031;-65
2021/06/08 11:59:46;;;;;;;;;;;;;;;24.90;75.85;99713.16;5029537;28;20386;-65
2021/06/08 12:02:27;;;;;;;;;;;;;;;22.01;98.92;99714.22;5035889;28;19925;-64
2021/06/08 12:05:12;;;;;;;;;;;;;;;23.60;95.47;99709.09;5036131;28;19964;-64
2021/06/08 12:07:42;;;;;;;;;;;;;;;23.28;94.57;99714.09;5040564;28;19917;-64
2021/06/08 12:10:08;;;;;;;;;;;;;;;23.71;89.38;99706.50;5039412;28;19916;-64
2021/06/08 12:12:54;;;;;;;;;;;;;;;24.50;91.21;99709.28;5037309;28;19917;-64
2021/06/08 12:15:20;;;;;;;;;;;;;;;23.18;96.97;99709.53;5028788;28;19923;-64
2021/06/08 12:17:54;;;;;;;;;;;;;;;23.09;100.00;99709.38;5031929;28;19931;-65
2021/06/08 12:20:22;;;;;;;;;;;;;;;23.74;92.35;99706.31;5031550;28;19917;-64
2021/06/08 12:22:59;;;;;;;;;;;;;;;23.77;85.36;99706.06;5034678;28;19929;-65
2021/06/08 12:25:25;;;;;;;;;;;;;;;25.29;85.22;99703.00;5034391;28;19963;-64
2021/06/08 12:27:51;;;;;;;;;;;;;;;23.75;87.93;99707.97;5033176;28;20653;-63
2021/06/08 12:30:20;;;;;;;;;;;;;;;23.25;89.10;99706.47;5033300;28;19967;-64
2021/06/08 12:32:51;;;;;;;;;;;;;;;23.41;91.72;99703.53;5033193;28;19916;-65
2021/06/08 12:35:24;;;;;;;;;;;;;;;22.41;95.85;99700.16;5031179;28;20547;-65
2021/06/08 12:37:50;;;;;;;;;;;;;;;22.51;100.00;99701.19;5036571;28;20012;-65
2021/06/08 12:40:19;;;;;;;;;;;;;;;22.51;100.00;99694.19;5029201;28;20011;-64